createdAt,value
2022-12-13T00:01:21.594Z,45.95
2022-12-13T00:02:52.981Z,45.78
2022-12-13T00:04:24.660Z,43.73
2022-12-13T00:05:56.328Z,43.42
2022-12-13T00:07:27.742Z,43.77
2022-12-13T00:08:59.006Z,43.99
2022-12-13T00:10:30.450Z,44.04
2022-12-13T00:12:06.799Z,43.25
2022-12-13T00:13:38.342Z,44.81
2022-12-13T00:15:09.797Z,41.39
2022-12-13T00:16:56.166Z,42.31
2022-12-13T00:18:27.560Z,41.19
2022-12-13T00:19:58.804Z,40.13
2022-12-13T00:21:30.492Z,42.05
2022-12-13T00:23:01.869Z,39.22
2022-12-13T00:24:34.199Z,36.65
2022-12-13T00:26:05.318Z,37.51
2022-12-13T00:27:36.643Z,38.79
2022-12-13T00:29:08.144Z,37.96
2022-12-13T00:30:39.824Z,38.69
2022-12-13T00:32:11.305Z,37.20
2022-12-13T00:33:44.044Z,39.18
2022-12-13T00:35:20.510Z,37.59
2022-12-13T00:36:52.569Z,37.14
2022-12-13T00:38:23.740Z,37.85
2022-12-13T00:39:55.113Z,38.17
2022-12-13T00:41:26.527Z,37.23
2022-12-13T00:42:58.307Z,37.72
2022-12-13T00:44:29.848Z,38.51
2022-12-13T00:46:01.527Z,39.25
2022-12-13T00:47:32.782Z,38.39
2022-12-13T00:49:09.519Z,37.91
2022-12-13T00:50:40.795Z,37.83
2022-12-13T00:52:12.229Z,38.48
2022-12-13T00:53:43.709Z,38.16
2022-12-13T00:55:15.523Z,37.82
2022-12-13T00:56:47.112Z,40.57
2022-12-13T00:58:18.478Z,39.10
2022-12-13T00:59:50.233Z,38.85
2022-12-13T01:01:21.700Z,40.10
2022-12-13T01:02:53.350Z,39.99
2022-12-13T01:04:24.807Z,40.32
2022-12-13T01:06:15.288Z,41.55
2022-12-13T01:07:52.518Z,42.45
2022-12-13T01:09:23.688Z,41.10
2022-12-13T01:10:55.276Z,40.13
2022-12-13T01:12:26.681Z,40.82
2022-12-13T01:13:58.086Z,37.66
2022-12-13T01:15:29.524Z,38.76
2022-12-13T01:17:01.184Z,37.24
2022-12-13T01:18:32.862Z,39.52
2022-12-13T01:20:04.512Z,40.75
2022-12-13T01:21:35.809Z,42.22
2022-12-13T01:23:07.350Z,40.63
2022-12-13T01:24:38.842Z,40.01
2022-12-13T01:26:10.277Z,40.99
2022-12-13T01:27:41.631Z,40.86
2022-12-13T01:29:13.182Z,39.47
2022-12-13T01:30:49.757Z,40.82
2022-12-13T01:32:21.145Z,39.95
2022-12-13T01:33:52.419Z,40.37
2022-12-13T01:35:23.554Z,40.00
2022-12-13T01:36:58.572Z,40.16
2022-12-13T01:38:30.726Z,40.84
2022-12-13T01:40:02.270Z,39.56
2022-12-13T01:41:47.424Z,39.80
2022-12-13T01:43:18.930Z,42.06
2022-12-13T01:44:50.099Z,37.34
2022-12-13T01:46:21.317Z,39.17
2022-12-13T01:47:52.810Z,40.59
2022-12-13T01:49:23.934Z,40.15
2022-12-13T01:50:55.507Z,40.39
2022-12-13T01:52:26.859Z,41.02
2022-12-13T01:53:58.236Z,40.48
2022-12-13T01:55:41.776Z,40.90
2022-12-13T01:57:13.479Z,40.46
2022-12-13T01:58:44.953Z,40.68
2022-12-13T02:00:16.449Z,41.01
2022-12-13T02:01:48.036Z,40.69
2022-12-13T02:03:21.226Z,39.04
2022-12-13T02:04:53.559Z,41.54
2022-12-13T02:06:29.935Z,42.40
2022-12-13T02:08:01.431Z,41.55
2022-12-13T02:09:32.869Z,40.96
2022-12-13T02:11:14.215Z,40.72
2022-12-13T02:12:45.582Z,43.10
2022-12-13T02:14:17.070Z,39.78
2022-12-13T02:15:48.489Z,41.32
2022-12-13T02:17:19.813Z,39.76
2022-12-13T02:18:52.247Z,39.36
2022-12-13T02:20:23.504Z,39.65
2022-12-13T02:21:54.672Z,40.04
2022-12-13T02:23:26.113Z,41.65
2022-12-13T02:24:57.284Z,41.16
2022-12-13T02:26:28.658Z,43.11
2022-12-13T02:28:00.524Z,42.00
2022-12-13T02:29:32.153Z,39.74
2022-12-13T02:31:03.914Z,38.40
2022-12-13T02:32:40.700Z,38.98
2022-12-13T02:34:13.224Z,42.08
2022-12-13T02:35:44.712Z,42.43
2022-12-13T02:37:17.813Z,40.90
2022-12-13T02:38:49.975Z,40.29
2022-12-13T02:40:21.442Z,40.19
2022-12-13T02:41:52.714Z,38.91
2022-12-13T02:43:23.929Z,38.99
2022-12-13T02:44:55.400Z,40.73
2022-12-13T02:46:26.651Z,40.69
2022-12-13T02:47:57.995Z,40.20
2022-12-13T02:49:29.645Z,41.25
2022-12-13T02:51:01.099Z,42.44
2022-12-13T02:52:32.548Z,41.37
2022-12-13T02:54:03.691Z,38.23
2022-12-13T02:55:36.186Z,39.57
2022-12-13T02:57:07.924Z,41.47
2022-12-13T02:58:39.715Z,39.29
2022-12-13T03:00:10.966Z,41.56
2022-12-13T03:01:42.505Z,40.45
2022-12-13T03:03:14.298Z,39.54
2022-12-13T03:04:45.857Z,39.80
2022-12-13T03:06:17.527Z,40.18
2022-12-13T03:07:49.093Z,39.96
2022-12-13T03:09:20.582Z,40.90
2022-12-13T03:10:51.844Z,40.82
2022-12-13T03:12:23.409Z,40.70
2022-12-13T03:13:54.976Z,41.45
2022-12-13T03:15:26.522Z,39.83
2022-12-13T03:16:57.993Z,41.62
2022-12-13T03:18:29.581Z,38.68
2022-12-13T03:20:00.928Z,42.71
2022-12-13T03:21:32.495Z,40.21
2022-12-13T03:23:04.068Z,40.44
2022-12-13T03:24:35.413Z,37.05
2022-12-13T03:26:11.823Z,39.04
2022-12-13T03:27:43.027Z,39.69
2022-12-13T03:29:14.197Z,41.09
2022-12-13T03:30:55.402Z,41.06
2022-12-13T03:32:26.892Z,40.39
2022-12-13T03:33:58.423Z,40.20
2022-12-13T03:35:35.026Z,40.90
2022-12-13T03:37:27.052Z,40.04
2022-12-13T03:39:01.239Z,41.23
2022-12-13T03:40:32.483Z,40.08
2022-12-13T03:42:35.945Z,41.47
2022-12-13T03:44:07.333Z,37.96
2022-12-13T03:45:38.951Z,41.70
2022-12-13T03:47:10.246Z,42.57
2022-12-13T03:48:41.864Z,40.23
2022-12-13T03:50:27.062Z,39.88
2022-12-13T03:52:08.866Z,42.77
2022-12-13T03:53:40.329Z,39.57
2022-12-13T03:55:11.927Z,39.29
2022-12-13T03:56:43.674Z,41.85
2022-12-13T03:58:15.141Z,43.32
2022-12-13T03:59:56.602Z,40.88
2022-12-13T04:01:47.968Z,41.04
2022-12-13T04:03:36.896Z,40.60
2022-12-13T04:05:32.087Z,41.79
2022-12-13T04:07:22.064Z,40.73
2022-12-13T04:09:09.051Z,39.52
2022-12-13T04:10:40.333Z,39.70
2022-12-13T04:12:16.881Z,41.81
2022-12-13T04:13:48.553Z,40.01
2022-12-13T04:15:25.203Z,39.51
2022-12-13T04:17:01.702Z,40.44
2022-12-13T04:19:03.568Z,39.72
2022-12-13T04:20:35.287Z,38.13
2022-12-13T04:22:24.675Z,37.87
2022-12-13T04:24:31.678Z,37.75
2022-12-13T04:26:03.809Z,37.11
2022-12-13T04:27:35.523Z,38.65
2022-12-13T04:29:07.049Z,38.78
2022-12-13T04:30:54.201Z,37.26
2022-12-13T04:32:46.950Z,34.33
2022-12-13T04:34:18.387Z,34.99
2022-12-13T04:36:07.549Z,36.18
2022-12-13T04:37:47.070Z,35.85
2022-12-13T04:39:22.297Z,36.62
2022-12-13T04:40:54.442Z,35.92
2022-12-13T04:42:25.950Z,37.97
2022-12-13T04:43:57.669Z,35.17
2022-12-13T04:45:29.323Z,35.17
2022-12-13T04:47:01.478Z,35.60
2022-12-13T04:48:33.520Z,38.24
2022-12-13T04:50:04.851Z,36.04
2022-12-13T04:51:36.276Z,37.25
2022-12-13T04:53:07.641Z,37.01
2022-12-13T04:54:39.189Z,35.16
2022-12-13T04:56:10.909Z,37.60
2022-12-13T04:57:47.306Z,37.61
2022-12-13T04:59:18.576Z,38.20
2022-12-13T05:00:49.982Z,36.37
2022-12-13T05:02:23.353Z,36.41
2022-12-13T05:03:55.565Z,36.37
2022-12-13T05:05:26.938Z,38.76
2022-12-13T05:06:58.587Z,38.23
2022-12-13T05:08:30.224Z,36.25
2022-12-13T05:10:01.840Z,38.26
2022-12-13T05:11:35.838Z,37.90
2022-12-13T05:13:07.585Z,36.74
2022-12-13T05:14:38.765Z,38.56
2022-12-13T05:16:10.130Z,37.74
2022-12-13T05:17:41.665Z,36.66
2022-12-13T05:19:13.082Z,36.80
2022-12-13T05:20:44.584Z,40.66
2022-12-13T05:22:20.514Z,39.42
2022-12-13T05:23:57.561Z,39.25
2022-12-13T05:25:29.049Z,37.11
2022-12-13T05:27:00.695Z,38.75
2022-12-13T05:28:32.349Z,36.04
2022-12-13T05:30:23.997Z,38.95
2022-12-13T05:31:56.619Z,38.47
2022-12-13T05:33:28.078Z,38.62
2022-12-13T05:35:04.729Z,38.58
2022-12-13T05:36:36.277Z,38.06
2022-12-13T05:38:07.611Z,36.18
2022-12-13T05:39:39.076Z,35.59
2022-12-13T05:41:15.741Z,35.21
2022-12-13T05:42:47.141Z,34.23
2022-12-13T05:44:18.677Z,35.94
2022-12-13T05:45:50.103Z,35.82
2022-12-13T05:47:42.134Z,33.79
2022-12-13T05:49:13.638Z,36.75
2022-12-13T05:50:45.268Z,34.60
2022-12-13T05:52:17.357Z,35.18
2022-12-13T05:53:53.287Z,34.69
2022-12-13T05:55:24.858Z,35.63
2022-12-13T05:56:56.274Z,35.55
2022-12-13T05:58:27.817Z,33.02
2022-12-13T06:00:07.614Z,35.84
2022-12-13T06:02:03.709Z,35.30
2022-12-13T06:03:35.456Z,33.53
2022-12-13T06:05:26.937Z,33.99
2022-12-13T06:06:58.591Z,34.68
2022-12-13T06:08:30.224Z,35.03
2022-12-13T06:10:10.603Z,32.77
2022-12-13T06:11:43.229Z,34.49
2022-12-13T06:13:21.755Z,34.29
2022-12-13T06:15:03.419Z,34.65
2022-12-13T06:16:52.913Z,33.99
2022-12-13T06:18:29.611Z,34.26
2022-12-13T06:20:02.704Z,35.18
2022-12-13T06:22:09.243Z,35.62
2022-12-13T06:23:41.115Z,33.10
2022-12-13T06:25:31.105Z,34.52
2022-12-13T06:27:03.454Z,33.82
2022-12-13T06:28:44.811Z,35.25
2022-12-13T06:30:21.278Z,34.36
2022-12-13T06:32:03.490Z,36.39
2022-12-13T06:33:35.066Z,35.50
2022-12-13T06:35:28.547Z,36.27
2022-12-13T06:37:01.392Z,37.29
2022-12-13T06:38:32.921Z,34.89
2022-12-13T06:40:23.514Z,35.82
2022-12-13T06:42:05.875Z,34.92
2022-12-13T06:43:38.146Z,36.16
2022-12-13T06:45:09.796Z,33.84
2022-12-13T06:46:41.277Z,34.51
2022-12-13T06:48:16.297Z,35.25
2022-12-13T06:49:51.531Z,36.78
2022-12-13T06:51:32.224Z,35.60
2022-12-13T06:53:04.096Z,37.40
2022-12-13T06:54:35.413Z,36.48
2022-12-13T06:56:06.789Z,37.81
2022-12-13T06:57:38.614Z,38.77
2022-12-13T06:59:22.340Z,40.68
2022-12-13T07:01:24.681Z,37.86
2022-12-13T07:02:56.935Z,42.08
2022-12-13T07:04:29.930Z,40.03
2022-12-13T07:06:08.546Z,39.63
2022-12-13T07:07:39.709Z,37.41
2022-12-13T07:09:11.353Z,35.27
2022-12-13T07:10:44.602Z,38.24
2022-12-13T07:12:16.189Z,36.69
2022-12-13T07:13:47.680Z,37.06
2022-12-13T07:15:19.225Z,35.99
2022-12-13T07:16:50.793Z,36.91
2022-12-13T07:18:22.110Z,37.04
2022-12-13T07:19:53.678Z,38.57
2022-12-13T07:21:25.218Z,36.67
2022-12-13T07:22:58.615Z,35.70
2022-12-13T07:24:30.894Z,35.90
2022-12-13T07:26:02.621Z,37.95
2022-12-13T07:27:34.219Z,36.54
2022-12-13T07:29:05.914Z,37.90
2022-12-13T07:30:40.999Z,38.87
2022-12-13T07:32:13.108Z,38.07
2022-12-13T07:33:44.868Z,34.10
2022-12-13T07:35:16.343Z,35.24
2022-12-13T07:36:48.006Z,35.98
2022-12-13T07:38:29.552Z,36.96
2022-12-13T07:40:04.510Z,36.96
2022-12-13T07:41:36.432Z,37.27
2022-12-13T07:43:08.035Z,40.10
2022-12-13T07:44:39.512Z,38.20
2022-12-13T07:46:21.442Z,38.00
2022-12-13T07:48:04.100Z,34.42
2022-12-13T07:49:46.435Z,38.04
2022-12-13T07:51:18.010Z,36.71
2022-12-13T07:52:54.480Z,37.44
2022-12-13T07:54:25.854Z,39.33
2022-12-13T07:55:57.123Z,38.03
2022-12-13T07:57:28.715Z,40.74
2022-12-13T07:59:05.224Z,36.88
2022-12-13T08:00:37.185Z,37.79
2022-12-13T08:02:26.294Z,37.09
2022-12-13T08:03:57.786Z,37.86
2022-12-13T08:05:29.269Z,38.44
2022-12-13T08:07:10.805Z,37.99
2022-12-13T08:08:42.672Z,38.53
2022-12-13T08:10:19.124Z,38.05
2022-12-13T08:11:55.891Z,40.32
2022-12-13T08:13:29.654Z,40.08
2022-12-13T08:15:01.752Z,40.10
2022-12-13T08:16:39.311Z,38.13
2022-12-13T08:18:10.505Z,40.31
2022-12-13T08:19:46.964Z,40.50
2022-12-13T08:21:52.525Z,37.01
2022-12-13T08:23:33.782Z,37.47
2022-12-13T08:25:16.244Z,37.85
2022-12-13T08:26:48.596Z,37.57
2022-12-13T08:28:20.170Z,39.62
2022-12-13T08:29:51.622Z,38.86
2022-12-13T08:31:28.405Z,37.31
2022-12-13T08:33:05.636Z,39.26
2022-12-13T08:34:37.486Z,40.41
2022-12-13T08:36:14.089Z,40.58
2022-12-13T08:37:46.152Z,39.32
2022-12-13T08:39:18.105Z,38.33
2022-12-13T08:40:51.534Z,41.43
2022-12-13T08:42:24.238Z,41.01
2022-12-13T08:43:56.327Z,39.84
2022-12-13T08:45:28.588Z,40.76
2022-12-13T08:47:00.566Z,41.81
2022-12-13T08:48:32.399Z,39.35
2022-12-13T08:50:04.756Z,38.74
2022-12-13T08:51:36.501Z,39.99
2022-12-13T08:53:08.486Z,38.36
2022-12-13T08:54:40.200Z,38.32
2022-12-13T08:56:12.047Z,38.23
2022-12-13T08:57:43.712Z,40.40
2022-12-13T08:59:15.956Z,38.85
2022-12-13T09:00:48.038Z,39.66
2022-12-13T09:02:19.875Z,38.57
2022-12-13T09:03:51.768Z,38.42
2022-12-13T09:05:34.416Z,38.16
2022-12-13T09:07:06.659Z,37.61
2022-12-13T09:08:43.235Z,37.70
2022-12-13T09:10:26.300Z,38.48
2022-12-13T09:12:00.172Z,37.20
2022-12-13T09:13:33.013Z,39.67
2022-12-13T09:15:05.939Z,39.31
2022-12-13T09:16:55.607Z,42.31
2022-12-13T09:18:36.111Z,39.30
2022-12-13T09:20:28.159Z,38.45
2022-12-13T09:22:03.022Z,36.71
2022-12-13T09:23:45.900Z,37.84
2022-12-13T09:25:23.916Z,39.06
2022-12-13T09:26:57.169Z,37.43
2022-12-13T09:28:29.133Z,38.85
2022-12-13T09:30:01.108Z,37.69
2022-12-13T09:31:32.884Z,38.28
2022-12-13T09:33:17.684Z,36.16
2022-12-13T09:35:01.114Z,40.08
2022-12-13T09:36:33.362Z,35.03
2022-12-13T09:38:05.924Z,39.08
2022-12-13T09:39:37.628Z,37.80
2022-12-13T09:41:10.289Z,38.11
2022-12-13T09:42:43.598Z,38.92
2022-12-13T09:44:30.511Z,38.32
2022-12-13T09:46:05.111Z,39.06
2022-12-13T09:47:47.202Z,39.53
2022-12-13T09:49:23.224Z,38.70
2022-12-13T09:51:16.586Z,36.57
2022-12-13T09:52:50.652Z,34.62
2022-12-13T09:54:22.516Z,35.42
2022-12-13T09:55:54.439Z,35.56
2022-12-13T09:57:42.158Z,36.40
2022-12-13T09:59:14.256Z,32.58
2022-12-13T10:00:45.695Z,34.25
2022-12-13T10:02:18.086Z,31.83
2022-12-13T10:03:50.032Z,32.02
2022-12-13T10:05:24.722Z,31.93
2022-12-13T10:07:07.903Z,32.48
2022-12-13T10:08:39.617Z,34.15
2022-12-13T10:10:11.529Z,35.40
2022-12-13T10:11:47.239Z,34.10
2022-12-13T10:13:22.693Z,33.46
2022-12-13T10:14:54.551Z,35.84
2022-12-13T10:16:26.733Z,32.09
2022-12-13T10:18:07.915Z,33.49
2022-12-13T10:19:40.185Z,31.93
2022-12-13T10:21:11.860Z,29.84
2022-12-13T10:23:01.600Z,30.41
2022-12-13T10:24:47.193Z,30.79
2022-12-13T10:26:24.300Z,32.37
2022-12-13T10:27:57.205Z,32.09
2022-12-13T10:29:28.641Z,31.59
2022-12-13T10:31:08.191Z,33.43
2022-12-13T10:32:40.054Z,31.70
2022-12-13T10:34:12.420Z,32.40
2022-12-13T10:35:44.398Z,32.98
2022-12-13T10:37:16.332Z,33.74
2022-12-13T10:38:48.291Z,36.22
2022-12-13T10:40:32.189Z,33.00
2022-12-13T10:42:04.888Z,32.67
2022-12-13T10:43:38.084Z,34.57
2022-12-13T10:45:10.832Z,34.51
2022-12-13T10:46:42.713Z,33.75
2022-12-13T10:48:16.782Z,33.37
2022-12-13T10:49:51.757Z,33.21
2022-12-13T10:51:31.017Z,32.38
2022-12-13T10:53:04.307Z,31.63
2022-12-13T10:54:48.595Z,31.52
2022-12-13T10:56:37.552Z,30.98
2022-12-13T10:58:09.605Z,29.04
2022-12-13T10:59:41.209Z,30.11
2022-12-13T11:01:12.928Z,29.32
2022-12-13T11:02:45.734Z,30.02
2022-12-13T11:04:17.963Z,32.01
2022-12-13T11:05:56.241Z,30.10
2022-12-13T11:07:30.192Z,31.76
2022-12-13T11:09:01.738Z,33.56
2022-12-13T11:10:38.603Z,31.67
2022-12-13T11:12:10.599Z,28.17
2022-12-13T11:13:42.109Z,27.86
2022-12-13T11:15:18.620Z,29.36
2022-12-13T11:16:55.380Z,31.97
2022-12-13T11:18:27.429Z,29.38
2022-12-13T11:19:59.429Z,31.22
2022-12-13T11:21:40.702Z,31.00
2022-12-13T11:23:12.776Z,31.50
2022-12-13T11:24:44.145Z,30.39
2022-12-13T11:26:15.600Z,29.72
2022-12-13T11:27:56.208Z,28.09
2022-12-13T11:29:27.467Z,27.76
2022-12-13T11:31:01.514Z,28.88
2022-12-13T11:32:33.193Z,26.71
2022-12-13T11:34:04.629Z,26.21
2022-12-13T11:35:36.185Z,27.39
2022-12-13T11:37:08.123Z,28.81
2022-12-13T11:38:39.331Z,30.19
2022-12-13T11:40:32.136Z,29.33
2022-12-13T11:42:03.496Z,32.20
2022-12-13T11:43:39.899Z,27.91
2022-12-13T11:45:13.267Z,28.55
2022-12-13T11:46:44.839Z,26.39
2022-12-13T11:48:16.430Z,25.14
2022-12-13T11:49:47.737Z,26.14
2022-12-13T11:51:19.064Z,25.84
2022-12-13T11:52:50.587Z,25.65
2022-12-13T11:54:23.524Z,26.13
2022-12-13T11:56:01.596Z,26.18
2022-12-13T11:57:33.222Z,26.00
2022-12-13T11:59:09.549Z,25.90
2022-12-13T12:00:46.051Z,26.26
2022-12-13T12:02:18.566Z,23.84
2022-12-13T12:03:50.053Z,23.00
2022-12-13T12:05:21.467Z,22.98
2022-12-13T12:06:52.808Z,23.91
2022-12-13T12:08:43.461Z,24.19
2022-12-13T12:10:14.673Z,24.66
2022-12-13T12:11:45.973Z,25.64
2022-12-13T12:13:17.299Z,29.19
2022-12-13T12:14:48.488Z,27.72
2022-12-13T12:16:23.668Z,24.80
2022-12-13T12:17:55.366Z,24.43
2022-12-13T12:19:26.642Z,25.37
2022-12-13T12:20:58.077Z,26.22
2022-12-13T12:22:29.467Z,25.84
2022-12-13T12:24:01.061Z,26.82
2022-12-13T12:25:51.472Z,26.49
2022-12-13T12:27:27.770Z,26.51
2022-12-13T12:29:01.229Z,24.03
2022-12-13T12:30:32.868Z,25.29
2022-12-13T12:32:04.274Z,25.22
2022-12-13T12:33:35.964Z,26.37
2022-12-13T12:35:07.309Z,25.21
2022-12-13T12:36:43.776Z,25.37
2022-12-13T12:38:15.465Z,26.95
2022-12-13T12:39:47.988Z,26.28
2022-12-13T12:41:19.373Z,24.32
2022-12-13T12:43:14.287Z,28.99
2022-12-13T12:44:46.262Z,26.50
2022-12-13T12:46:19.021Z,25.59
2022-12-13T12:48:41.303Z,26.85
2022-12-13T12:50:22.087Z,25.93
2022-12-13T12:51:53.334Z,25.05
2022-12-13T12:53:24.638Z,26.70
2022-12-13T12:54:56.560Z,27.01
2022-12-13T12:56:29.228Z,26.68
2022-12-13T12:58:10.488Z,28.87
2022-12-13T12:59:41.864Z,25.41
2022-12-13T13:01:17.275Z,26.12
2022-12-13T13:02:48.777Z,27.46
2022-12-13T13:04:22.514Z,24.80
2022-12-13T13:06:01.458Z,28.11
2022-12-13T13:07:40.121Z,49.82
2022-12-13T13:09:11.760Z,38.78
2022-12-13T13:10:49.795Z,36.14
2022-12-13T13:12:29.141Z,32.47
2022-12-13T13:14:02.379Z,28.47
2022-12-13T13:15:40.060Z,27.08
2022-12-13T13:17:11.580Z,28.09
2022-12-13T13:18:43.081Z,26.28
2022-12-13T13:20:14.612Z,27.02
2022-12-13T13:21:46.116Z,27.53
2022-12-13T13:23:39.388Z,27.02
2022-12-13T13:25:11.721Z,24.30
2022-12-13T13:26:43.213Z,29.00
2022-12-13T13:28:14.881Z,23.30
2022-12-13T13:29:46.347Z,22.81
2022-12-13T13:31:17.996Z,22.83
2022-12-13T13:32:49.610Z,24.21
2022-12-13T13:34:21.052Z,23.58
2022-12-13T13:35:52.601Z,23.20
2022-12-13T13:37:23.871Z,21.10
2022-12-13T13:38:55.362Z,22.09
2022-12-13T13:40:44.270Z,22.26
2022-12-13T13:42:15.556Z,22.45
2022-12-13T13:43:46.835Z,26.95
2022-12-13T13:45:18.091Z,24.71
2022-12-13T13:46:49.326Z,23.66
2022-12-13T13:48:25.644Z,26.68
2022-12-13T13:50:01.649Z,27.61
2022-12-13T13:51:33.503Z,25.13
2022-12-13T13:53:05.318Z,25.21
2022-12-13T13:54:38.487Z,25.76
2022-12-13T13:56:10.309Z,23.48
2022-12-13T13:58:07.526Z,23.33
2022-12-13T13:59:59.657Z,23.99
2022-12-13T14:01:31.113Z,22.70
2022-12-13T14:03:08.924Z,23.53
2022-12-13T14:04:44.188Z,23.75
2022-12-13T14:06:15.803Z,25.44
2022-12-13T14:07:47.633Z,23.58
2022-12-13T14:09:18.968Z,24.36
2022-12-13T14:10:50.445Z,22.75
2022-12-13T14:12:21.951Z,22.72
2022-12-13T14:13:53.609Z,25.27
2022-12-13T14:15:24.740Z,24.52
2022-12-13T14:16:56.150Z,26.06
2022-12-13T14:18:27.704Z,26.52
2022-12-13T14:19:59.469Z,27.75
2022-12-13T14:21:32.934Z,27.88
2022-12-13T14:23:04.156Z,27.04
2022-12-13T14:24:35.288Z,25.54
2022-12-13T14:26:11.476Z,27.06
2022-12-13T14:27:43.590Z,26.89
2022-12-13T14:29:28.178Z,25.76
2022-12-13T14:31:00.093Z,28.65
2022-12-13T14:32:31.471Z,26.59
2022-12-13T14:34:02.832Z,27.30
2022-12-13T14:35:34.130Z,30.90
2022-12-13T14:37:05.712Z,27.75
2022-12-13T14:38:57.382Z,26.16
2022-12-13T14:40:28.789Z,28.33
2022-12-13T14:42:06.816Z,27.45
2022-12-13T14:43:38.974Z,44.35
2022-12-13T14:45:10.481Z,43.20
2022-12-13T14:46:41.867Z,28.79
2022-12-13T14:48:13.437Z,28.23
2022-12-13T14:49:49.077Z,27.76
2022-12-13T14:51:21.110Z,28.90
2022-12-13T14:52:52.698Z,30.36
2022-12-13T14:54:26.081Z,30.86
2022-12-13T14:55:58.008Z,29.10
2022-12-13T14:57:30.132Z,40.28
2022-12-13T14:59:01.864Z,47.66
2022-12-13T15:00:33.514Z,55.10
2022-12-13T15:02:06.142Z,44.94
2022-12-13T15:03:47.934Z,42.70
2022-12-13T15:05:28.809Z,43.24
2022-12-13T15:07:00.573Z,43.54
2022-12-13T15:08:42.156Z,35.21
2022-12-13T15:10:13.926Z,32.10
2022-12-13T15:11:45.485Z,34.02
2022-12-13T15:13:17.007Z,31.12
2022-12-13T15:14:49.543Z,31.35
2022-12-13T15:16:21.504Z,30.14
2022-12-13T15:17:53.145Z,30.00
2022-12-13T15:19:29.653Z,30.52
2022-12-13T15:21:03.524Z,32.25
2022-12-13T15:22:41.530Z,30.49
2022-12-13T15:24:12.771Z,32.01
2022-12-13T15:25:44.550Z,31.53
2022-12-13T15:27:16.096Z,30.01
2022-12-13T15:28:47.665Z,29.15
2022-12-13T15:30:19.443Z,32.85
2022-12-13T15:31:51.095Z,31.82
2022-12-13T15:33:26.293Z,29.49
2022-12-13T15:35:02.247Z,29.85
2022-12-13T15:36:33.795Z,29.18
2022-12-13T15:38:05.379Z,29.75
2022-12-13T15:39:37.234Z,31.22
2022-12-13T15:41:18.695Z,31.31
2022-12-13T15:42:50.132Z,32.26
2022-12-13T15:44:21.685Z,31.00
2022-12-13T15:45:53.221Z,32.09
2022-12-13T15:47:39.267Z,28.93
2022-12-13T15:49:10.706Z,29.20
2022-12-13T15:50:47.159Z,30.59
2022-12-13T15:52:33.176Z,30.42
2022-12-13T15:54:04.579Z,29.62
2022-12-13T15:55:36.143Z,31.95
2022-12-13T15:57:07.322Z,31.32
2022-12-13T15:58:38.602Z,32.50
2022-12-13T16:00:09.954Z,29.89
2022-12-13T16:01:41.563Z,33.14
2022-12-13T16:03:13.468Z,32.64
2022-12-13T16:04:45.843Z,33.02
2022-12-13T16:06:17.461Z,31.49
2022-12-13T16:07:50.766Z,31.10
2022-12-13T16:09:24.695Z,33.75
2022-12-13T16:10:56.482Z,34.41
2022-12-13T16:12:58.991Z,32.08
2022-12-13T16:14:49.167Z,30.57
2022-12-13T16:16:27.140Z,36.39
2022-12-13T16:17:59.540Z,33.85
2022-12-13T16:19:30.845Z,32.69
2022-12-13T16:21:02.318Z,34.61
2022-12-13T16:22:33.486Z,35.56
2022-12-13T16:24:05.111Z,36.32
2022-12-13T16:25:53.460Z,36.57
2022-12-13T16:27:25.033Z,36.35
2022-12-13T16:28:56.513Z,37.18
2022-12-13T16:30:27.745Z,35.97
2022-12-13T16:32:01.687Z,38.68
2022-12-13T16:33:39.988Z,36.90
2022-12-13T16:35:11.366Z,34.38
2022-12-13T16:36:42.739Z,34.99
2022-12-13T16:38:26.825Z,34.67
2022-12-13T16:39:58.716Z,36.20
2022-12-13T16:41:30.173Z,34.46
2022-12-13T16:43:01.741Z,33.55
2022-12-13T16:44:33.282Z,35.01
2022-12-13T16:47:16.835Z,31.95
2022-12-13T16:48:51.997Z,31.63
2022-12-13T16:50:23.358Z,30.86
2022-12-13T16:51:54.834Z,30.92
2022-12-13T16:53:27.032Z,35.55
2022-12-13T16:54:58.749Z,33.63
2022-12-13T16:56:30.211Z,30.99
2022-12-13T16:58:01.607Z,29.80
2022-12-13T16:59:38.003Z,30.89
2022-12-13T17:01:09.652Z,32.50
2022-12-13T17:02:41.172Z,33.35
2022-12-13T17:04:16.542Z,29.85
2022-12-13T17:05:51.215Z,31.07
2022-12-13T17:07:30.482Z,32.26
2022-12-13T17:09:07.046Z,30.96
2022-12-13T17:10:38.649Z,32.06
2022-12-13T17:12:10.104Z,30.84
2022-12-13T17:13:41.762Z,28.98
2022-12-13T17:15:13.228Z,31.26
2022-12-13T17:16:44.892Z,30.03
2022-12-13T17:18:16.406Z,32.25
2022-12-13T17:20:22.906Z,29.64
2022-12-13T17:21:54.710Z,28.76
2022-12-13T17:23:26.443Z,30.02
2022-12-13T17:24:58.383Z,29.15
2022-12-13T17:26:30.031Z,29.73
2022-12-13T17:28:01.438Z,29.32
2022-12-13T17:29:53.020Z,28.67
2022-12-13T17:31:24.909Z,30.04
2022-12-13T17:32:57.489Z,30.19
2022-12-13T17:34:29.253Z,29.95
2022-12-13T17:36:05.627Z,29.78
2022-12-13T17:38:03.252Z,30.57
2022-12-13T17:39:34.688Z,30.15
2022-12-13T17:41:06.315Z,29.66
2022-12-13T17:42:38.026Z,30.80
2022-12-13T17:44:09.885Z,30.44
2022-12-13T17:45:41.694Z,29.62
2022-12-13T17:47:13.302Z,29.66
2022-12-13T17:48:44.893Z,29.69
2022-12-13T17:50:32.768Z,31.17
2022-12-13T17:52:15.525Z,31.64
2022-12-13T17:53:47.579Z,30.11
2022-12-13T17:55:19.260Z,30.41
2022-12-13T17:56:57.772Z,30.27
2022-12-13T17:58:29.794Z,29.81
2022-12-13T18:00:11.572Z,29.68
2022-12-13T18:01:42.963Z,28.84
2022-12-13T18:03:26.198Z,29.21
2022-12-13T18:04:58.277Z,29.75
2022-12-13T18:06:29.859Z,32.09
2022-12-13T18:08:06.481Z,29.85
2022-12-13T18:09:47.803Z,28.52
2022-12-13T18:11:38.068Z,29.14
2022-12-13T18:13:10.010Z,27.85
2022-12-13T18:14:43.001Z,28.47
2022-12-13T18:16:15.725Z,27.07
2022-12-13T18:18:10.692Z,29.34
2022-12-13T18:19:43.268Z,26.24
2022-12-13T18:21:24.546Z,29.48
2022-12-13T18:22:56.594Z,28.22
2022-12-13T18:24:28.022Z,28.34
2022-12-13T18:26:00.207Z,28.76
2022-12-13T18:27:31.755Z,28.22
2022-12-13T18:29:03.438Z,28.63
2022-12-13T18:30:34.978Z,28.11
2022-12-13T18:32:21.981Z,41.68
2022-12-13T18:33:53.790Z,37.24
2022-12-13T18:35:25.425Z,32.15
2022-12-13T18:37:15.523Z,44.89
2022-12-13T18:38:47.496Z,71.06
2022-12-13T18:40:19.896Z,40.89
2022-12-13T18:41:51.550Z,37.12
2022-12-13T18:43:40.033Z,35.29
2022-12-13T18:45:12.491Z,38.70
2022-12-13T18:46:46.208Z,36.13
2022-12-13T18:48:32.930Z,35.58
2022-12-13T18:50:24.727Z,38.25
2022-12-13T18:52:01.850Z,35.05
2022-12-13T18:54:12.827Z,37.57
2022-12-13T18:55:44.480Z,34.57
2022-12-13T18:57:16.494Z,32.55
2022-12-13T18:58:54.732Z,30.83
2022-12-13T19:00:43.906Z,35.40
2022-12-13T19:02:28.389Z,35.24
2022-12-13T19:04:04.443Z,32.50
2022-12-13T19:05:35.821Z,34.25
2022-12-13T19:07:20.102Z,33.00
2022-12-13T19:08:51.801Z,31.29
2022-12-13T19:10:24.081Z,36.68
2022-12-13T19:13:47.856Z,30.03
2022-12-13T19:15:29.405Z,32.99
2022-12-13T19:17:01.055Z,32.97
2022-12-13T19:18:33.980Z,34.48
2022-12-13T19:20:05.906Z,30.82
2022-12-13T19:21:37.683Z,32.43
2022-12-13T19:23:09.556Z,31.22
2022-12-13T19:24:50.742Z,32.46
2022-12-13T19:26:22.678Z,37.05
2022-12-13T19:27:54.302Z,30.44
2022-12-13T19:29:26.015Z,34.19
2022-12-13T19:30:57.671Z,32.09
2022-12-13T19:32:29.391Z,30.73
2022-12-13T19:34:01.019Z,31.88
2022-12-13T19:35:33.928Z,32.52
2022-12-13T19:37:21.988Z,30.61
2022-12-13T19:38:53.464Z,30.69
2022-12-13T19:40:25.235Z,31.22
2022-12-13T19:42:06.916Z,32.95
2022-12-13T19:43:38.586Z,34.27
2022-12-13T19:45:10.461Z,33.65
2022-12-13T19:46:49.960Z,32.96
2022-12-13T19:48:27.713Z,32.01
2022-12-13T19:50:00.823Z,32.33
2022-12-13T19:51:39.656Z,32.20
2022-12-13T19:53:24.678Z,32.20
2022-12-13T19:55:10.807Z,30.14
2022-12-13T19:56:42.675Z,31.48
2022-12-13T19:58:15.350Z,34.06
2022-12-13T19:59:47.555Z,32.77
2022-12-13T20:01:19.472Z,35.76
2022-12-13T20:02:51.311Z,33.00
2022-12-13T20:04:23.396Z,33.90
2022-12-13T20:05:55.530Z,32.12
2022-12-13T20:07:27.232Z,35.58
2022-12-13T20:08:58.753Z,35.84
2022-12-13T20:10:30.591Z,36.14
2022-12-13T20:12:02.249Z,35.56
2022-12-13T20:13:33.927Z,34.65
2022-12-13T20:15:05.560Z,35.74
2022-12-13T20:16:37.386Z,32.90
2022-12-13T20:18:09.640Z,34.70
2022-12-13T20:19:41.328Z,34.86
2022-12-13T20:21:13.571Z,35.98
2022-12-13T20:22:46.156Z,34.17
2022-12-13T20:24:20.555Z,37.25
2022-12-13T20:25:55.640Z,38.48